Time;durP1;ratioP1;P1;durP2;ratioP2;P2;SDS_P1;SDS_P2;PMS_P1;PMS_P2;Temp;Humidity;BMP_temperature;BMP_pressure;BME280_temperature;BME280_humidity;BME280_pressure;Samples;Min_cycle;Max_cycle;Signal;HPM_P1;HPM_P2
2021/09/24 00:00:25;;;;;;;2.53;2.33;;;;;;;19.00;49.65;99105.41;5000856;28;20308;-91
2021/09/24 00:02:52;;;;;;;2.90;2.70;;;;;;;18.85;49.81;99098.22;5001325;28;20231;-91
2021/09/24 00:05:19;;;;;;;4.07;2.63;;;;;;;18.75;50.27;99099.16;4985011;28;20227;-90
2021/09/24 00:07:46;;;;;;;4.03;2.20;;;;;;;18.87;49.80;99105.00;4985001;28;20235;-91
2021/09/24 00:10:15;;;;;;;3.07;2.70;;;;;;;18.90;49.70;99111.75;4984681;28;20341;-91
2021/09/24 00:12:42;;;;;;;2.83;2.20;;;;;;;18.96;49.44;99118.75;5001191;28;20243;-92
2021/09/24 00:15:12;;;;;;;3.60;2.40;;;;;;;18.99;49.59;99122.81;5018249;28;20234;-91
2021/09/24 00:17:39;;;;;;;2.90;2.60;;;;;;;18.96;49.68;99110.63;5000851;28;20235;-93
2021/09/24 00:20:07;;;;;;;4.30;2.50;;;;;;;19.00;49.99;99124.41;5017346;28;20719;-90
2021/09/24 00:22:34;;;;;;;2.93;2.70;;;;;;;19.03;49.98;99126.59;4985150;28;20236;-92
2021/09/24 00:25:02;;;;;;;2.60;2.40;;;;;;;19.09;50.01;99137.09;5001004;28;20258;-91
2021/09/24 00:27:29;;;;;;;3.13;2.80;;;;;;;19.18;50.05;99137.25;4984697;28;20565;-89
2021/09/24 00:29:55;;;;;;;2.90;2.67;;;;;;;19.34;50.18;99139.53;5017270;28;20575;-92
2021/09/24 00:32:22;;;;;;;4.50;3.20;;;;;;;19.40;50.50;99134.06;4984209;28;20281;-91
2021/09/24 00:34:50;;;;;;;2.90;2.70;;;;;;;19.45;50.31;99134.84;5017857;28;20230;-90
2021/09/24 00:37:16;;;;;;;3.43;2.97;;;;;;;19.38;50.61;99123.47;4984804;28;20579;-92
2021/09/24 00:39:43;;;;;;;3.90;2.87;;;;;;;19.36;50.86;99142.75;5000457;28;20257;-88
2021/09/24 00:42:10;;;;;;;3.27;2.97;;;;;;;19.19;51.32;99136.97;4983925;28;20234;-91
2021/09/24 00:44:49;;;;;;;3.40;3.10;;;;;;;19.14;51.47;99131.59;4984429;28;20226;-92
2021/09/24 00:47:17;;;;;;;6.20;3.50;;;;;;;19.09;51.78;99137.09;5001076;28;20664;-87
2021/09/24 00:49:45;;;;;;;3.90;3.10;;;;;;;19.12;51.65;99128.38;4984216;28;20313;-93
2021/09/24 00:52:12;;;;;;;3.87;3.43;;;;;;;19.04;51.70;99123.56;4983968;28;20625;-92
2021/09/24 00:54:40;;;;;;;3.83;3.00;;;;;;;18.97;51.90;99139.38;4984116;28;20226;-91
2021/09/24 00:57:07;;;;;;;4.67;3.00;;;;;;;19.06;51.88;99136.84;4984506;28;20230;-92
2021/09/24 00:59:34;;;;;;;3.17;2.73;;;;;;;19.00;51.88;99138.00;5000167;28;20234;-88
2021/09/24 01:02:01;;;;;;;4.33;3.60;;;;;;;18.84;52.43;99118.34;4967379;28;20705;-89
2021/09/24 01:04:29;;;;;;;4.10;3.43;;;;;;;18.84;52.27;99129.19;4983720;28;20223;-87
2021/09/24 01:06:55;;;;;;;5.07;3.00;;;;;;;18.86;52.13;99135.13;5000047;28;20226;-82
2021/09/24 01:09:23;;;;;;;3.53;3.23;;;;;;;18.84;52.10;99129.19;4999431;28;20318;-89
2021/09/24 01:11:51;;;;;;;4.20;3.20;;;;;;;18.71;52.28;99122.50;4999762;28;20313;-91
2021/09/24 01:14:18;;;;;;;5.30;2.90;;;;;;;18.84;51.49;99121.88;4983414;28;20223;-92
2021/09/24 01:16:45;;;;;;;3.57;3.10;;;;;;;18.83;51.54;99112.09;4999807;28;20652;-89
2021/09/24 01:19:12;;;;;;;3.30;3.00;;;;;;;18.70;52.12;99114.69;4999780;28;20230;-84
2021/09/24 01:21:42;;;;;;;4.20;2.80;;;;;;;18.72;51.84;99115.19;5016705;28;20239;-91
2021/09/24 01:24:10;;;;;;;3.73;3.30;;;;;;;18.76;51.79;99108.09;4999690;28;20516;-91
2021/09/24 01:26:45;;;;;;;3.37;3.07;;;;;;;18.78;51.72;99114.06;4983261;28;20230;-90
2021/09/24 01:29:12;;;;;;;4.03;2.87;;;;;;;18.68;52.02;99108.72;5016548;28;20245;-90
2021/09/24 01:31:40;;;;;;;3.13;2.93;;;;;;;18.57;51.74;99097.13;4983484;28;20286;-87
2021/09/24 01:34:07;;;;;;;3.30;3.00;;;;;;;18.60;52.08;99103.91;4982904;28;20281;-85
2021/09/24 01:36:34;;;;;;;3.10;2.90;;;;;;;18.64;51.68;99086.78;4967224;28;20243;-90
2021/09/24 01:39:10;;;;;;;3.67;3.10;;;;;;;18.54;52.13;99081.44;4983261;28;20231;-93
2021/09/24 01:41:42;;;;;;;3.97;3.23;;;;;;;18.61;51.64;99070.25;4967275;28;20230;-88
2021/09/24 01:44:09;;;;;;;4.80;3.13;;;;;;;18.63;51.82;99084.34;4982937;28;20247;-92
2021/09/24 01:46:42;;;;;;;3.20;2.97;;;;;;;18.60;51.73;99090.34;4999596;28;20664;-87
2021/09/24 01:49:09;;;;;;;3.40;3.10;;;;;;;18.59;51.91;99100.38;4999305;28;20597;-87
2021/09/24 01:51:38;;;;;;;3.07;2.87;;;;;;;18.59;51.71;99096.84;4983329;28;20310;-89
2021/09/24 01:54:06;;;;;;;3.23;2.87;;;;;;;18.65;51.74;99107.38;4982637;28;20638;-91
2021/09/24 01:56:33;;;;;;;4.80;3.13;;;;;;;18.75;51.30;99104.59;4999251;28;20232;-90
2021/09/24 01:59:00;;;;;;;3.10;2.80;;;;;;;18.66;51.62;99084.59;4999019;28;20223;-86
2021/09/24 02:01:27;;;;;;;4.00;2.73;;;;;;;18.58;51.83;99096.03;4999181;28;20235;-87
2021/09/24 02:03:54;;;;;;;4.40;2.90;;;;;;;18.60;51.65;99083.00;5016249;28;20230;-92
2021/09/24 02:06:21;;;;;;;3.40;3.10;;;;;;;18.71;51.70;99108.94;4982831;28;20266;-92
2021/09/24 02:08:48;;;;;;;3.27;3.00;;;;;;;18.58;51.87;99109.59;4983200;28;20246;-93
2021/09/24 02:11:15;;;;;;;4.43;2.70;;;;;;;18.55;51.87;99110.19;4982633;28;20237;-93
2021/09/24 02:13:42;;;;;;;3.00;2.80;;;;;;;18.53;52.10;99115.06;4998764;28;20223;-89
2021/09/24 02:16:10;;;;;;;3.13;2.90;;;;;;;18.45;52.03;99105.63;5014857;28;20235;-91
2021/09/24 02:18:38;;;;;;;3.50;3.20;;;;;;;18.60;51.95;99090.34;4983180;28;20538;-92
2021/09/24 02:21:05;;;;;;;3.50;3.20;;;;;;;18.74;51.61;99100.25;4982537;28;20497;-92
2021/09/24 02:23:32;;;;;;;3.93;3.00;;;;;;;18.67;51.51;99107.09;4966821;28;20289;-87
2021/09/24 02:25:59;;;;;;;3.50;2.90;;;;;;;18.58;51.89;99112.31;4998960;28;20223;-84
2021/09/24 02:28:26;;;;;;;3.20;2.90;;;;;;;18.48;51.93;99102.31;4999131;28;20697;-91
2021/09/24 02:30:53;;;;;;;3.33;3.03;;;;;;;18.56;52.15;99121.84;4998806;28;20231;-91
2021/09/24 02:33:20;;;;;;;3.90;2.90;;;;;;;18.53;51.82;99106.09;4966905;28;20273;-87
2021/09/24 02:35:47;;;;;;;3.67;2.60;;;;;;;18.57;51.69;99116.13;4982485;28;20239;-90
2021/09/24 02:38:13;;;;;;;3.30;3.10;;;;;;;18.55;51.97;99102.03;4982363;28;20277;-91
2021/09/24 02:40:40;;;;;;;3.10;2.90;;;;;;;18.58;51.77;99111.50;4998454;28;20681;-91
2021/09/24 02:43:07;;;;;;;3.50;2.90;;;;;;;18.59;51.98;99124.78;4998868;28;20231;-88
2021/09/24 02:45:34;;;;;;;3.83;3.07;;;;;;;18.49;52.61;99120.22;4982662;28;20534;-92
2021/09/24 02:48:01;;;;;;;3.23;2.93;;;;;;;18.42;52.59;99119.75;4982302;28;20638;-85
2021/09/24 02:50:27;;;;;;;3.57;2.90;;;;;;;18.20;52.93;99102.25;4982484;28;20305;-93
2021/09/24 02:52:54;;;;;;;3.27;2.90;;;;;;;18.32;53.05;99121.72;4982420;28;20231;-93
2021/09/24 02:55:21;;;;;;;3.67;3.03;;;;;;;18.27;53.29;99103.59;4982425;28;20577;-91
2021/09/24 02:57:48;;;;;;;3.53;3.03;;;;;;;18.31;53.36;99109.25;4998937;28;20709;-91
2021/09/24 03:00:15;;;;;;;3.80;3.00;;;;;;;18.32;53.30;99114.41;4998362;28;20650;-93
2021/09/24 03:02:42;;;;;;;5.20;3.30;;;;;;;18.39;52.86;99111.34;4982434;28;20234;-93
2021/09/24 03:05:09;;;;;;;4.03;3.20;;;;;;;18.40;53.11;99110.25;4982289;28;20231;-86
2021/09/24 03:07:36;;;;;;;4.10;3.37;;;;;;;18.33;53.40;99112.50;4982153;28;20581;-92
2021/09/24 03:10:04;;;;;;;3.70;3.27;;;;;;;18.27;53.63;99119.84;4997178;28;20250;-92
2021/09/24 03:12:31;;;;;;;4.37;3.20;;;;;;;18.33;53.50;99118.75;4998657;28;20250;-94
2021/09/24 03:14:58;;;;;;;3.50;3.20;;;;;;;18.38;53.38;99118.69;4998659;28;20554;-92
2021/09/24 03:17:25;;;;;;;3.80;3.30;;;;;;;18.39;53.42;99116.78;4982574;28;20234;-92
2021/09/24 03:19:52;;;;;;;3.43;3.13;;;;;;;18.47;53.32;99119.72;4998746;28;20239;-93
2021/09/24 03:22:19;;;;;;;3.67;3.37;;;;;;;18.52;53.25;99131.63;4998066;28;20318;-92
2021/09/24 03:24:45;;;;;;;3.60;3.30;;;;;;;18.44;53.35;99117.56;4982158;28;20227;-94
2021/09/24 03:27:13;;;;;;;4.13;3.37;;;;;;;18.43;53.66;99129.50;4984572;28;20238;-91
2021/09/24 03:29:40;;;;;;;3.57;3.17;;;;;;;18.42;53.40;99116.22;5002042;28;20237;-90
2021/09/24 03:32:07;;;;;;;4.53;3.30;;;;;;;18.37;53.81;99130.63;4985433;28;20261;-92
2021/09/24 03:34:34;;;;;;;4.10;3.40;;;;;;;18.42;53.58;99136.03;4985582;28;20222;-92
2021/09/24 03:37:01;;;;;;;4.43;3.30;;;;;;;18.37;53.82;99138.78;5001739;28;20313;-91
2021/09/24 03:39:28;;;;;;;3.73;3.30;;;;;;;18.24;54.12;99146.72;5001866;28;20541;-92
2021/09/24 03:41:55;;;;;;;3.70;3.27;;;;;;;18.24;54.27;99146.72;4985469;28;20237;-93
2021/09/24 03:44:22;;;;;;;4.23;3.50;;;;;;;18.12;54.78;99154.38;5001547;28;20645;-89
2021/09/24 03:46:49;;;;;;;4.20;3.60;;;;;;;18.03;54.85;99143.31;4985826;28;20242;-91
2021/09/24 03:49:16;;;;;;;5.00;3.30;;;;;;;17.99;55.21;99158.53;5001732;28;20235;-93
2021/09/24 03:51:43;;;;;;;4.13;3.73;;;;;;;17.89;55.34;99151.25;5001765;28;20238;-90
2021/09/24 03:54:09;;;;;;;4.17;3.77;;;;;;;17.94;55.22;99163.97;5000864;28;20234;-91
2021/09/24 03:56:36;;;;;;;4.50;3.73;;;;;;;17.88;55.51;99151.53;5001461;28;20281;-92
2021/09/24 03:59:03;;;;;;;4.33;3.93;;;;;;;17.92;55.58;99174.25;4985531;28;20231;-86
2021/09/24 04:01:30;;;;;;;4.00;3.43;;;;;;;17.94;55.58;99169.38;5001309;28;20281;-92
2021/09/24 04:03:57;;;;;;;5.23;3.90;;;;;;;17.88;55.72;99175.91;5001449;28;20230;-90
2021/09/24 04:06:24;;;;;;;3.83;3.53;;;;;;;17.84;55.86;99164.81;5000679;28;20258;-88
2021/09/24 04:08:51;;;;;;;4.07;3.40;;;;;;;17.96;55.49;99176.13;4985045;28;20219;-91
2021/09/24 04:11:17;;;;;;;4.57;3.33;;;;;;;17.81;56.04;99187.06;5000904;28;20277;-91
2021/09/24 04:13:44;;;;;;;4.23;3.83;;;;;;;17.74;56.03;99183.81;5000917;28;20235;-89
2021/09/24 04:16:11;;;;;;;3.57;3.27;;;;;;;17.81;55.86;99189.78;4984034;28;20237;-91
2021/09/24 04:18:38;;;;;;;5.20;3.60;;;;;;;17.85;55.62;99190.03;4984602;28;20227;-86
2021/09/24 04:21:05;;;;;;;4.97;3.73;;;;;;;17.86;55.51;99197.06;5000697;28;20238;-90
2021/09/24 04:23:32;;;;;;;4.00;3.67;;;;;;;17.99;55.19;99196.47;4985009;28;20317;-91
2021/09/24 04:25:59;;;;;;;4.07;3.57;;;;;;;17.81;55.65;99206.03;4984436;28;20285;-89
2021/09/24 04:28:26;;;;;;;5.60;3.77;;;;;;;17.77;55.46;99167.03;4984167;28;20231;-88
2021/09/24 04:30:53;;;;;;;3.87;3.57;;;;;;;17.97;55.33;99188.59;4983712;28;20258;-93
2021/09/24 04:33:20;;;;;;;4.60;3.80;;;;;;;17.98;55.67;99200.25;4998074;28;20218;-89
2021/09/24 04:35:47;;;;;;;4.00;3.60;;;;;;;17.88;55.58;99192.16;5000162;28;20230;-90
2021/09/24 04:38:13;;;;;;;4.50;3.63;;;;;;;17.95;55.23;99187.28;4997295;28;20262;-86
2021/09/24 04:40:41;;;;;;;4.17;3.63;;;;;;;18.03;54.91;99206.47;4982228;28;20251;-86
2021/09/24 04:43:08;;;;;;;5.20;3.57;;;;;;;18.07;55.10;99214.84;4999842;28;20361;-93
2021/09/24 04:45:35;;;;;;;3.80;3.43;;;;;;;18.07;55.14;99211.34;4983584;28;20230;-92
2021/09/24 04:48:02;;;;;;;4.10;3.73;;;;;;;18.06;55.15;99224.06;4982869;28;20257;-87
2021/09/24 04:50:29;;;;;;;4.00;3.60;;;;;;;17.97;55.63;99210.28;4983495;28;20223;-85
2021/09/24 04:52:55;;;;;;;3.90;3.60;;;;;;;18.05;55.32;99214.34;4999679;28;20235;-89
2021/09/24 04:55:22;;;;;;;4.27;3.87;;;;;;;18.00;55.12;99209.75;4999886;28;20221;-93
2021/09/24 04:57:51;;;;;;;3.97;3.57;;;;;;;17.97;55.68;99218.41;4983478;28;20236;-87
2021/09/24 05:00:18;;;;;;;3.63;3.30;;;;;;;18.02;55.31;99217.59;4998987;28;20222;-91
2021/09/24 05:02:45;;;;;;;5.20;3.90;;;;;;;18.07;55.47;99224.88;4983593;28;20223;-90
2021/09/24 05:05:11;;;;;;;6.43;4.03;;;;;;;18.13;54.79;99230.03;4999071;28;20227;-88
2021/09/24 05:07:38;;;;;;;3.40;3.10;;;;;;;18.21;54.72;99224.00;4999313;28;20259;-88
2021/09/24 05:10:06;;;;;;;4.00;3.70;;;;;;;18.31;54.71;99231.28;4998899;28;20234;-93
2021/09/24 05:12:33;;;;;;;3.70;3.40;;;;;;;18.29;54.59;99226.13;4982938;28;20226;-88
2021/09/24 05:14:59;;;;;;;5.53;3.20;;;;;;;18.25;54.70;99218.81;4982914;28;20233;-91
2021/09/24 05:17:27;;;;;;;5.63;3.67;;;;;;;18.34;54.77;99236.94;5016241;28;20242;-92
2021/09/24 05:19:53;;;;;;;4.20;3.80;;;;;;;18.48;54.26;99227.09;4998906;28;20241;-92
2021/09/24 05:22:20;;;;;;;3.97;3.60;;;;;;;18.55;54.09;99242.28;4982483;28;20521;-92
2021/09/24 05:24:47;;;;;;;3.83;3.53;;;;;;;18.57;53.74;99229.28;4966794;28;20230;-87
2021/09/24 05:27:14;;;;;;;4.67;3.70;;;;;;;18.58;54.08;99225.44;4982582;28;20240;-92
2021/09/24 05:29:40;;;;;;;4.50;3.70;;;;;;;18.71;53.59;99239.19;4982804;28;20254;-91
2021/09/24 05:32:08;;;;;;;4.03;3.60;;;;;;;18.70;53.67;99239.50;4965966;28;20231;-91
2021/09/24 05:34:35;;;;;;;3.87;3.20;;;;;;;18.65;53.86;99226.78;5016089;28;20250;-87
2021/09/24 05:37:02;;;;;;;3.87;3.43;;;;;;;18.60;53.62;99224.09;5015714;28;20333;-89
2021/09/24 05:39:29;;;;;;;4.30;3.90;;;;;;;18.55;53.72;99218.69;4982670;28;20239;-92
2021/09/24 05:41:56;;;;;;;5.17;3.70;;;;;;;18.63;54.08;99233.56;4982459;28;20317;-87
2021/09/24 05:44:22;;;;;;;3.73;3.33;;;;;;;18.65;53.85;99237.63;4965988;28;20229;-87
2021/09/24 05:46:49;;;;;;;7.07;3.20;;;;;;;18.77;53.89;99237.25;4982481;28;20245;-88
2021/09/24 05:49:16;;;;;;;4.20;3.33;;;;;;;18.70;53.76;99244.91;4997988;28;20234;-93
2021/09/24 05:51:42;;;;;;;4.30;3.90;;;;;;;18.78;53.59;99253.28;4998557;28;20222;-92
2021/09/24 05:54:09;;;;;;;3.67;3.30;;;;;;;19.00;53.43;99250.09;4982247;28;20234;-92
2021/09/24 05:56:36;;;;;;;5.17;3.50;;;;;;;19.03;52.96;99241.41;4982256;28;20234;-93
2021/09/24 05:59:03;;;;;;;4.13;3.63;;;;;;;19.15;52.51;99249.19;4982483;28;20227;-89
2021/09/24 06:01:30;;;;;;;5.57;3.40;;;;;;;19.10;52.77;99246.50;4981977;28;20231;-88
2021/09/24 06:03:57;;;;;;;5.00;3.90;;;;;;;19.03;52.47;99265.03;4998338;28;20262;-93
2021/09/24 06:06:23;;;;;;;5.13;3.53;;;;;;;19.03;52.75;99278.63;4997863;28;20261;-89
2021/09/24 06:08:50;;;;;;;5.23;3.63;;;;;;;19.08;52.85;99252.25;4965976;28;20222;-88
2021/09/24 06:11:18;;;;;;;4.97;3.70;;;;;;;19.10;52.70;99282.63;4982052;28;20231;-92
2021/09/24 06:13:45;;;;;;;5.43;3.50;;;;;;;19.17;52.91;99276.88;4981465;28;20241;-87
2021/09/24 06:16:12;;;;;;;4.77;3.63;;;;;;;19.27;52.85;99276.78;4997771;28;20233;-90
2021/09/24 06:18:39;;;;;;;4.33;3.90;;;;;;;19.24;52.27;99266.47;4981917;28;20223;-85
2021/09/24 06:21:07;;;;;;;4.57;3.53;;;;;;;19.29;52.61;99275.41;4998175;28;20633;-92
2021/09/24 06:23:34;;;;;;;3.93;3.63;;;;;;;19.39;52.39;99251.94;4998025;28;20235;-87
2021/09/24 06:26:01;;;;;;;5.00;3.73;;;;;;;19.29;52.70;99261.00;4997818;28;20326;-82
2021/09/24 06:28:28;;;;;;;4.40;3.30;;;;;;;19.42;52.25;99264.97;4982055;28;20234;-91
2021/09/24 06:30:57;;;;;;;6.03;3.60;;;;;;;19.36;52.68;99273.16;4981869;28;20627;-91
2021/09/24 06:33:24;;;;;;;6.07;3.53;;;;;;;19.45;52.35;99250.84;4998214;28;20233;-90
2021/09/24 06:35:52;;;;;;;3.93;3.53;;;;;;;19.55;52.20;99264.34;4982140;28;20265;-91
2021/09/24 06:38:19;;;;;;;4.30;3.57;;;;;;;19.44;52.09;99276.38;4981413;28;20631;-90
2021/09/24 06:40:46;;;;;;;5.07;3.50;;;;;;;19.70;51.67;99281.28;4981459;28;20223;-92
2021/09/24 06:43:13;;;;;;;4.40;3.23;;;;;;;19.52;52.19;99263.00;5007225;28;20222;-91
2021/09/24 06:45:40;;;;;;;4.73;3.63;;;;;;;19.68;51.68;99272.63;5008868;28;20646;-85
2021/09/24 06:48:06;;;;;;;9.03;3.70;;;;;;;19.77;51.54;99264.66;5011436;28;20314;-87
2021/09/24 06:50:34;;;;;;;4.10;3.60;;;;;;;19.80;51.22;99277.66;5001212;28;20245;-89
2021/09/24 06:53:01;;;;;;;5.13;3.67;;;;;;;19.88;51.12;99268.84;5017814;28;20719;-87
2021/09/24 06:55:29;;;;;;;5.33;3.53;;;;;;;20.03;50.32;99281.47;5017528;28;20254;-91
2021/09/24 06:57:57;;;;;;;5.53;3.63;;;;;;;20.02;50.55;99272.50;5001190;28;20226;-91
2021/09/24 07:00:25;;;;;;;4.23;3.43;;;;;;;20.18;50.52;99284.84;5018257;28;20230;-88
2021/09/24 07:02:52;;;;;;;4.33;3.93;;;;;;;20.19;50.37;99293.81;4989982;28;20234;-91
2021/09/24 07:05:19;;;;;;;4.40;3.60;;;;;;;20.07;50.23;99283.31;4985452;28;20262;-90
2021/09/24 07:07:46;;;;;;;4.63;3.90;;;;;;;20.14;49.77;99264.75;4985369;28;20249;-90
2021/09/24 07:10:13;;;;;;;5.07;3.40;;;;;;;20.36;49.58;99293.34;5001245;28;20230;-88
2021/09/24 07:12:41;;;;;;;5.53;3.80;;;;;;;20.31;49.59;99302.38;4985469;28;20238;-84
2021/09/24 07:15:09;;;;;;;4.40;3.70;;;;;;;20.33;49.97;99316.50;4985358;28;20289;-86
2021/09/24 07:17:36;;;;;;;5.73;4.00;;;;;;;20.11;50.11;99305.34;5001558;28;20314;-87
2021/09/24 07:20:05;;;;;;;3.83;3.53;;;;;;;20.29;49.70;99290.16;5000830;28;20281;-88
2021/09/24 07:22:31;;;;;;;5.47;3.90;;;;;;;20.45;49.66;99319.63;5001060;28;20524;-87
2021/09/24 07:24:58;;;;;;;4.97;3.77;;;;;;;20.20;49.82;99300.88;5001313;28;20245;-91
2021/09/24 07:27:25;;;;;;;5.77;4.30;;;;;;;20.29;49.52;99303.75;5000890;28;20234;-91
2021/09/24 07:29:52;;;;;;;9.97;3.97;;;;;;;20.26;49.43;99318.72;4984959;28;20239;-87
2021/09/24 07:32:18;;;;;;;7.20;3.73;;;;;;;20.41;49.47;99296.81;5000686;28;20223;-83
2021/09/24 07:34:45;;;;;;;6.27;3.87;;;;;;;20.57;49.89;99319.22;5001028;28;20234;-87
2021/09/24 07:37:12;;;;;;;4.43;4.03;;;;;;;20.52;49.53;99319.28;4985005;28;20565;-91
2021/09/24 07:39:39;;;;;;;6.97;3.90;;;;;;;20.41;49.12;99312.31;5000927;28;20676;-90
2021/09/24 07:42:07;;;;;;;5.27;4.00;;;;;;;20.33;49.54;99323.88;5019491;28;20225;-86
2021/09/24 07:44:34;;;;;;;6.37;3.80;;;;;;;20.40;49.61;99318.88;5019609;28;20230;-80
2021/09/24 07:47:01;;;;;;;4.90;3.90;;;;;;;20.44;49.47;99311.72;4983591;28;20223;-88
2021/09/24 07:49:28;;;;;;;4.00;3.70;;;;;;;20.10;49.96;99309.97;5019302;28;20657;-87
2021/09/24 07:51:54;;;;;;;6.83;4.20;;;;;;;20.20;49.70;99301.66;5001124;28;20227;-92
2021/09/24 07:54:22;;;;;;;7.20;4.10;;;;;;;20.26;49.63;99310.56;4992326;28;20703;-90
2021/09/24 07:56:52;;;;;;;4.90;4.40;;;;;;;20.22;49.77;99314.97;4982118;28;20247;-88
2021/09/24 07:59:21;;;;;;;7.17;4.20;;;;;;;20.31;49.58;99321.41;4982529;28;20261;-87
2021/09/24 08:01:48;;;;;;;4.90;4.40;;;;;;;20.25;49.63;99322.53;4998698;28;20227;-88
2021/09/24 08:04:15;;;;;;;4.73;4.30;;;;;;;19.93;50.17;99306.88;4983815;28;20233;-89
2021/09/24 08:06:45;;;;;;;7.40;4.70;;;;;;;20.21;49.91;99311.44;5000659;28;20552;-89
2021/09/24 08:09:12;;;;;;;4.73;4.20;;;;;;;20.04;50.10;99330.13;4983948;28;20326;-91
2021/09/24 08:11:39;;;;;;;6.63;4.20;;;;;;;20.23;50.14;99327.47;4982903;28;20285;-84
2021/09/24 08:14:07;;;;;;;4.70;4.30;;;;;;;20.25;50.22;99319.81;4999196;28;20234;-92
2021/09/24 08:16:34;;;;;;;6.47;4.43;;;;;;;20.19;50.08;99324.53;5000247;28;20227;-90
2021/09/24 08:19:00;;;;;;;7.97;4.73;;;;;;;20.31;49.78;99320.59;5000025;28;20321;-91
2021/09/24 08:21:29;;;;;;;6.77;4.07;;;;;;;20.44;49.69;99328.88;4983435;28;20619;-93
2021/09/24 08:23:56;;;;;;;4.50;4.10;;;;;;;20.67;49.36;99334.59;4967129;28;20231;-91
2021/09/24 08:26:23;;;;;;;4.13;3.73;;;;;;;20.84;48.91;99330.25;4983135;28;20293;-89
2021/09/24 08:28:50;;;;;;;4.57;3.90;;;;;;;21.05;48.65;99336.22;5016348;28;20534;-91
2021/09/24 08:31:17;;;;;;;5.87;4.50;;;;;;;21.14;47.88;99326.28;4983118;28;20230;-90
2021/09/24 08:33:46;;;;;;;5.10;4.20;;;;;;;21.14;47.99;99323.56;4983483;28;20233;-91
2021/09/24 08:36:14;;;;;;;6.23;4.20;;;;;;;21.22;47.93;99314.75;4983767;28;20270;-85
2021/09/24 08:38:40;;;;;;;4.27;3.63;;;;;;;21.50;47.12;99318.38;4998775;28;20335;-90
2021/09/24 08:41:07;;;;;;;10.47;3.73;;;;;;;21.74;46.90;99329.13;4982929;28;20631;-90
2021/09/24 08:43:34;;;;;;;4.20;3.63;;;;;;;21.79;45.61;99304.50;4983350;28;20229;-90
2021/09/24 08:46:02;;;;;;;3.57;3.20;;;;;;;21.89;45.48;99312.47;4998839;28;20234;-90
2021/09/24 08:48:29;;;;;;;4.87;3.77;;;;;;;21.93;45.45;99308.88;4983040;28;20236;-86
2021/09/24 08:50:56;;;;;;;4.47;3.27;;;;;;;21.62;46.05;99313.25;4999508;28;20762;-89
2021/09/24 08:53:24;;;;;;;3.97;3.20;;;;;;;21.88;45.60;99313.59;4999191;28;20714;-91
2021/09/24 08:55:51;;;;;;;6.67;3.30;;;;;;;21.60;45.62;99311.94;4966747;28;20254;-89
2021/09/24 08:58:19;;;;;;;3.53;2.90;;;;;;;21.59;46.40;99327.47;4982717;28;20230;-86
2021/09/24 09:00:47;;;;;;;3.23;2.77;;;;;;;21.70;45.83;99307.09;4982940;28;20228;-92
2021/09/24 09:03:18;;;;;;;3.50;2.90;;;;;;;21.81;45.06;99313.19;4999177;28;20240;-90
2021/09/24 09:05:51;;;;;;;5.37;3.00;;;;;;;21.94;44.78;99321.41;4967310;28;20425;-89
2021/09/24 09:08:20;;;;;;;3.97;3.00;;;;;;;21.99;45.49;99308.78;4998301;28;20286;-89
2021/09/24 09:10:56;;;;;;;3.03;2.73;;;;;;;21.95;44.86;99308.59;4998566;28;20226;-88
2021/09/24 09:13:32;;;;;;;4.50;3.00;;;;;;;22.12;44.99;99306.06;4983139;28;20244;-91
2021/09/24 09:16:01;;;;;;;5.47;2.73;;;;;;;22.21;44.49;99298.00;4998644;28;20219;-87
2021/09/24 09:18:31;;;;;;;2.90;2.70;;;;;;;22.42;44.37;99306.56;5016251;28;20232;-90
2021/09/24 09:20:59;;;;;;;3.20;2.90;;;;;;;22.54;43.47;99304.09;4983489;28;20636;-88
2021/09/24 09:23:27;;;;;;;3.07;2.87;;;;;;;22.59;43.37;99304.81;4981641;28;20750;-88
2021/09/24 09:26:00;;;;;;;5.13;2.60;;;;;;;22.61;43.83;99296.31;4982241;28;20259;-89
2021/09/24 09:28:41;;;;;;;3.00;2.67;;;;;;;22.57;43.44;99290.66;4998294;28;20235;-89
2021/09/24 09:31:26;;;;;;;4.80;2.80;;;;;;;22.28;43.97;99303.84;4982351;28;20588;-90
2021/09/24 09:33:56;;;;;;;2.90;2.70;;;;;;;22.42;44.22;99295.63;4966626;28;20227;-89
2021/09/24 09:36:34;;;;;;;2.90;2.57;;;;;;;22.69;44.02;99309.25;4997939;28;20314;-89
2021/09/24 09:39:13;;;;;;;2.90;2.17;;;;;;;22.64;43.88;99298.44;4982298;28;20289;-88
2021/09/24 09:41:51;;;;;;;2.83;2.53;;;;;;;22.87;43.70;99297.38;4982312;28;20227;-87
2021/09/24 09:44:29;;;;;;;2.70;2.50;;;;;;;22.68;43.29;99292.03;4981729;28;20229;-89
2021/09/24 09:46:57;;;;;;;2.60;2.40;;;;;;;22.78;43.48;99308.25;4965781;28;20255;-90
2021/09/24 09:49:28;;;;;;;3.47;2.60;;;;;;;23.01;43.11;99284.50;4981960;28;20262;-89
2021/09/24 09:52:07;;;;;;;4.10;2.60;;;;;;;23.45;42.88;99286.44;4998165;28;20285;-88
2021/09/24 09:54:34;;;;;;;2.60;2.40;;;;;;;23.42;43.02;99288.97;4981803;28;20424;-86
2021/09/24 09:57:22;;;;;;;2.90;2.50;;;;;;;23.66;42.44;99311.34;4982474;28;20245;-87
2021/09/24 09:59:50;;;;;;;2.47;2.20;;;;;;;23.53;41.85;99306.75;4998589;28;20251;-84
2021/09/24 10:02:20;;;;;;;4.43;2.70;;;;;;;23.41;42.06;99310.03;4982031;28;20234;-90
2021/09/24 10:04:53;;;;;;;3.00;2.30;;;;;;;23.05;42.48;99304.59;4998333;28;20626;-89
2021/09/24 10:07:25;;;;;;;2.53;2.20;;;;;;;23.09;42.67;99305.63;4998208;28;20265;-90
2021/09/24 10:10:05;;;;;;;3.17;2.53;;;;;;;23.51;41.97;99322.69;4982080;28;20229;-89
2021/09/24 10:12:32;;;;;;;3.57;2.30;;;;;;;23.49;42.14;99311.22;4998027;28;20223;-89
2021/09/24 10:14:59;;;;;;;2.33;2.03;;;;;;;23.69;42.17;99313.47;4998207;28;20226;-89
2021/09/24 10:17:26;;;;;;;2.40;2.20;;;;;;;23.37;42.44;99330.09;4998400;28;20542;-88
2021/09/24 10:19:54;;;;;;;2.67;2.40;;;;;;;23.59;42.02;99322.72;4997918;28;20664;-83
2021/09/24 10:22:24;;;;;;;2.30;2.20;;;;;;;23.58;41.75;99323.03;4994451;28;20245;-90
2021/09/24 10:24:52;;;;;;;3.20;2.40;;;;;;;23.63;41.61;99318.25;4978782;28;20256;-89
2021/09/24 10:27:25;;;;;;;2.57;2.37;;;;;;;23.80;41.73;99314.78;4962600;28;20232;-88
2021/09/24 10:29:55;;;;;;;2.67;2.40;;;;;;;23.73;41.56;99321.84;4978868;28;20237;-87
2021/09/24 10:32:24;;;;;;;2.67;2.27;;;;;;;23.64;42.77;99330.00;4978496;28;20237;-88
2021/09/24 10:35:07;;;;;;;2.80;2.40;;;;;;;23.63;42.31;99320.97;4979032;28;20233;-89
2021/09/24 10:37:39;;;;;;;3.83;2.23;;;;;;;23.83;41.91;99316.91;4950884;28;20255;-89
2021/09/24 10:40:22;;;;;;;2.70;2.50;;;;;;;24.03;41.36;99321.00;4966288;28;20324;-89
2021/09/24 10:42:57;;;;;;;2.70;2.50;;;;;;;24.39;40.88;99318.13;4966343;28;20639;-88
2021/09/24 10:45:39;;;;;;;2.90;2.70;;;;;;;24.13;41.65;99335.22;4983536;28;20237;-85
2021/09/24 10:48:20;;;;;;;2.80;2.60;;;;;;;24.46;40.96;99330.22;4966369;28;20231;-88
2021/09/24 10:50:57;;;;;;;3.23;2.30;;;;;;;24.04;41.10;99326.19;4982571;28;20230;-89
2021/09/24 10:53:25;;;;;;;3.03;2.60;;;;;;;24.63;40.37;99325.94;4982830;28;20574;-89
2021/09/24 10:55:52;;;;;;;2.33;2.13;;;;;;;25.14;39.63;99325.19;4965930;28;20301;-85
2021/09/24 10:58:28;;;;;;;6.20;2.70;;;;;;;25.55;39.05;99328.25;4998824;28;20626;-88
2021/09/24 11:01:04;;;;;;;3.00;2.53;;;;;;;25.62;39.08;99309.34;4982481;28;20230;-88
2021/09/24 11:03:33;;;;;;;3.60;2.90;;;;;;;25.84;38.79;99317.38;4999306;28;20239;-90
2021/09/24 11:06:05;;;;;;;3.38;2.60;;;;;;;25.97;37.66;99301.00;4966090;28;20318;-87
2021/09/24 11:08:38;;;;;;;4.30;2.80;;;;;;;25.90;38.13;99317.19;4982017;28;20535;-87
2021/09/24 11:11:05;;;;;;;2.92;2.40;;;;;;;25.95;37.68;99317.00;4999105;28;20234;-86
2021/09/24 11:13:33;;;;;;;2.60;2.40;;;;;;;25.80;37.99;99305.41;4999193;28;20227;-89
2021/09/24 11:16:02;;;;;;;2.83;2.63;;;;;;;25.93;37.90;99298.13;4964839;28;20549;-81
2021/09/24 11:18:52;;;;;;;4.05;2.55;;;;;;;26.38;37.59;99308.59;4965763;28;20312;-89
2021/09/24 11:21:45;;;;;;;2.80;2.55;;;;;;;26.10;37.59;99314.53;4976746;28;20231;-86
2021/09/24 11:24:44;;;;;;;3.65;2.65;;;;;;;25.72;38.08;99305.44;5000513;28;20223;-85
2021/09/24 11:27:14;;;;;;;2.80;2.47;;;;;;;25.65;38.55;99308.72;4969661;28;20239;-89
2021/09/24 11:30:02;;;;;;;2.60;2.40;;;;;;;25.73;37.67;99301.56;4985021;28;20227;-85
2021/09/24 11:32:43;;;;;;;2.83;2.40;;;;;;;26.04;37.71;99299.34;5000824;28;20278;-88
2021/09/24 11:35:15;;;;;;;2.67;2.45;;;;;;;26.34;37.87;99297.47;4984948;28;20246;-86
2021/09/24 11:37:46;;;;;;;3.30;2.40;;;;;;;26.63;37.21;99307.66;4984745;28;20322;-88
2021/09/24 11:40:16;;;;;;;2.60;2.40;;;;;;;26.57;37.27;99315.28;4968940;28;20238;-88